Weather at Trieste–Friuli Venezia Giulia Airport

Public forecast

Using degrees Celsius for public forecast. Weather courtesy of forecast.io.

Current aviation weather report (METAR) for Trieste–Friuli Venezia Giulia Airport

2024/07/24 21:20 (retrieved 30 minutes ago)

LIPQ 242120Z AUTO 07004KT 030V120 9999 BKN091/// 27/16 Q1012

Aviation forecast (TAF) for Trieste–Friuli Venezia Giulia Airport

2024/07/24 18:21 (retrieved 3 hours ago)

TAF LIPQ 241700Z 2418/2518 08006KT 9999 SCT050